ADDS METAR Data INFO
IDs: Format: Raw Decoded Include TAF

Data at: 0942 UTC 25 Jun 2018

KFMY 250853Z AUTO 11005KT 10SM FEW002 A3002 RMK AO2 SLP169 57003 $
KFMY 250753Z AUTO 00000KT 10SM CLR A3003 RMK AO2 SLP173 $
KFMY 250653Z AUTO 11003KT 10SM CLR A3002 RMK AO2 SLP169 $
KFMY 250553Z AUTO 11005KT 10SM CLR A3003 RMK AO2 SLP173 60000 56017 $
KFMY 250453Z AUTO 11004KT 10SM CLR A3004 RMK AO2 SLP176 $
KFMY 250353Z AUTO 08005KT 10SM CLR A3006 RMK AO2 RAE0254UPB0254E13 SLP183 P0000 $
KFMY 250253Z AUTO 05006KT 10SM -RA CLR A3008 RMK AO2 UPB19E45RAB32 SLP189 P0000 60000 50018 $
KFMY 250153Z AUTO 04008KT 10SM BKN036 BKN070 25/24 A3009 RMK AO2 SLP192 T02500239 $
KFMY 250053Z 01003KT 10SM FEW060 24/23 A3006 RMK AO2 SLP182 T02390233 $
KFMY 242353Z 00000KT 7SM CLR 24/23 A3003 RMK AO2 LTG DSNT W RAE12 PRESRR SLP171 P0002 60124 T02390228 10311 20228 51005 $
KFMY 242253Z 04004KT 7SM RA BKN100 OVC110 24/23 A3002 RMK AO2 LTG DSNT SW AND W TSE2156 SLP166 P0007 T02390228 $
KFMY 242233Z 07003KT 7SM -RA FEW060 BKN095 OVC120 23/23 A3003 RMK AO2 LTG DSNT S-NW TSE2156 P0005 T02280228 $
KFMY 242224Z 11005KT 4SM VCTS -RA BR FEW065 OVC095 23/23 A3004 RMK AO2 LTG DSNT SW-NW TSE2156 P0004 T02280228 $
KFMY 242202Z 14003KT 2 1/2SM VCTS RA BR FEW055 SCT070 OVC100 23/23 A3005 RMK AO2 LTG DSNT ALQDS TSE2156 P0002 T02280228 $
KFMY 242153Z 15007KT 2 1/2SM TSRA BR SCT049 BKN070 OVC095 24/23 A3004 RMK AO2 PK WND 12027/2113 WSHFT 2107 LTG DSNT ALQDS TSE2055B25E40B41 SLP176 P0027 T02390233 $
KFMY 242140Z 11012KT 2 1/2SM VCTS +RA BR FEW031 BKN049 OVC085 24/23 A3004 RMK AO2 PK WND 12027/2113 WSHFT 2107 LTG DSNT ALQDS TSE2055B25E40 P0020 T02390233 $
KFMY 242125Z 14015G26KT 4SM TSRA BR FEW015 BKN033 OVC080 24/23 A3006 RMK AO2 PK WND 12027/2113 WSHFT 2107 LTG DSNT ALQDS TSE2055B25 P0009 T02390233 $
KFMY 242055Z 05003KT 4SM VCTS +RA BKN046 BKN055 OVC070 A3002 RMK AO2 LTG DSNT ALQDS TSE55 P0001 $
KFMY 242053Z 05005KT 2SM +TSRA BR BKN046 BKN055 OVC070 26/24 A3002 RMK AO2 LTG DSNT ALQDS TSE38B40 SLP166 P0076 60088 T02610244 53007 $
KFMY 242031Z 09005KT 2 1/2SM +TSRA BR FEW018 BKN030 OVC085 26/24 A3001 RMK AO2 LTG DSNT ALQDS P0059 T02610244 $
KFMY 242018Z 13004KT 1 1/2SM +TSRA BR FEW019 BKN029 OVC065 26/24 A3001 RMK AO2 LTG DSNT ALQDS P0013 T02610244 $
KFMY 242000Z 23006KT 3SM -TSRA BR BKN060 OVC080 26/24 A3001 RMK AO2 LTG DSNT ALQDS P0000 T02610244 $
KFMY 241953Z 25011KT 2 1/2SM -TSRA BR SCT050 BKN065 OVC080 31/24 A3000 RMK AO2 PK WND 34028/1907 WSHFT 1909 LTG DSNT ALQDS RAB08 TSB44 SLP162 P0012 T03110244 $
KFMY 241950Z 24012KT 2 1/2SM -TSRA SCT050 BKN080 OVC110 31/24 A3000 RMK AO2 PK WND 34028/1907 WSHFT 1909 LTG DSNT ALQDS RAB08 TSB44 P0012 $
KFMY 241928Z 24012KT 2SM VCTS -RA FEW020 BKN047 OVC055 31/24 A2999 RMK AO2 PK WND 34028/1907 WSHFT 1909 LTG DSNT S-NW RAB08 P0010 T03110244 $
KFMY 241920Z 27011KT 1 3/4SM VCTS -RA FEW022 BKN047 BKN070 31/24 A3000 RMK AO2 PK WND 34028/1907 SFC VIS 2 LTG DSNT ALQDS RAB08 P0009 T03110244 $
KFMY 241912Z 29011G28KT 1 3/4SM RA FEW022 SCT043 BKN050 31/24 A2999 RMK AO2 PK WND 34028/1907 SFC VIS 2 LTG DSNT ALQDS RAB08 P0009 T03110244 $
KFMY 241853Z 30012KT 10SM SCT041 BKN050 31/24 A3000 RMK AO2 LTG DSNT S-W SLP159 T03110239 $
KFMY 241849Z 27015KT 10SM BKN043 BKN060 31/24 A3000 RMK AO2 LTG DSNT SW-N $
KFMY 241817Z VRB06KT 10SM VCTS FEW030 BKN047 OVC055 31/24 A3000 RMK AO2 T03110239 $
KFMY 241753Z 12006KT 10SM SCT050 32/22 A3001 RMK AO2 LTG DSNT W SLP163 T03220222 10328 20261 58015 $
KFMY 241653Z 07006KT 10SM BKN046 32/23 A3003 RMK AO2 LTG DSNT NW SLP170 T03220228 $
KFMY 241644Z 04006KT 10SM FEW044 32/23 A3003 RMK AO2 LTG DSNT NW T03220228 $
KFMY 241602Z 02005KT 10SM VCTS FEW041 32/23 A3004 RMK AO2 LTG DSNT W AND NW T03220228 $
KFMY 241553Z 36007KT 10SM FEW040 32/23 A3004 RMK AO2 LTG DSNT NW SLP175 T03220233 $
KFMY 241453Z VRB04KT 10SM CLR 30/23 A3005 RMK AO2 SLP178 T03000228 51009 $
KFMY 241353Z 00000KT 10SM CLR 28/23 A3004 RMK AO2 SLP174 T02780228 $
KFMY 241253Z 00000KT 10SM CLR 28/23 A3005 RMK AO2 SLP176 T02780233 $
KFMY 241153Z 12003KT 10SM CLR 25/24 A3002 RMK AO2 SLP169 T02500239 53006 $
KFMY 241053Z 00000KT 10SM CLR A3002 RMK AO2 SLP169 $
KFMY 240953Z AUTO 16003KT 10SM CLR A2999 RMK AO2 SLP159 $
KFMY 240853Z AUTO 00000KT 10SM CLR A3000 RMK AO2 SLP162 57003 $
KFMY 240753Z AUTO 00000KT 10SM CLR A3000 RMK AO2 SLP162 $
KFMY 240653Z AUTO 12004KT 10SM CLR A3001 RMK AO2 SLP166 $
KFMY 240553Z AUTO 15003KT 10SM CLR A3001 RMK AO2 SLP166 58007 $
KFMY 240453Z AUTO 00000KT 10SM CLR A3002 RMK AO2 SLP169 $
KFMY 240353Z AUTO 00000KT 10SM CLR A3004 RMK AO2 SLP176 $
KFMY 240253Z AUTO 15003KT 10SM CLR A3003 RMK AO2 SLP173 52010 $
KFMY 240153Z AUTO VRB03KT 10SM CLR A3002 RMK AO2 SLP169 $
KFMY 240053Z 13004KT 10SM CLR 26/23 A3002 RMK AO2 SLP166 T02610233 $
KFMY 232353Z 15003KT 10SM OVC075 A3000 RMK AO2 SLP162 60000 55000 $
KFMY 232253Z 08004KT 10SM FEW065 27/24 A3000 RMK AO2 RAE2158 SLP161 P0000 T02720244 $
KFMY 232153Z 05003KT 10SM -RA BKN035 BKN070 28/23 A3000 RMK AO2 LTG DSNT N AND NE RAB13 SLP162 P0000 T02780233 $